sensor_id;sensor_type;location;lat;lon;timestamp;temperature;humidity
5176;DHT22;2607;50.934;6.934;2022-11-15T00:02:09;11.10;99.90
5176;DHT22;2607;50.934;6.934;2022-11-15T00:04:34;11.10;99.90
5176;DHT22;2607;50.934;6.934;2022-11-15T00:07:00;11.10;99.90
5176;DHT22;2607;50.934;6.934;2022-11-15T00:09:25;11.10;99.90
5176;DHT22;2607;50.934;6.934;2022-11-15T00:11:51;11.10;99.90
5176;DHT22;2607;50.934;6.934;2022-11-15T00:14:17;11.10;99.90
5176;DHT22;2607;50.934;6.934;2022-11-15T00:16:43;11.10;99.90
5176;DHT22;2607;50.934;6.934;2022-11-15T00:19:09;11.10;99.90
5176;DHT22;2607;50.934;6.934;2022-11-15T00:21:34;11.20;99.90
5176;DHT22;2607;50.934;6.934;2022-11-15T00:24:00;11.10;99.90
5176;DHT22;2607;50.934;6.934;2022-11-15T00:26:25;11.20;99.90
5176;DHT22;2607;50.934;6.934;2022-11-15T00:28:52;11.20;99.90
5176;DHT22;2607;50.934;6.934;2022-11-15T00:31:18;11.20;99.90
5176;DHT22;2607;50.934;6.934;2022-11-15T00:33:44;11.20;99.90
5176;DHT22;2607;50.934;6.934;2022-11-15T00:36:10;11.30;99.90
5176;DHT22;2607;50.934;6.934;2022-11-15T00:38:38;11.30;99.90
5176;DHT22;2607;50.934;6.934;2022-11-15T00:41:05;11.30;99.90
5176;DHT22;2607;50.934;6.934;2022-11-15T00:43:31;11.30;99.90
5176;DHT22;2607;50.934;6.934;2022-11-15T00:45:57;11.40;99.90
5176;DHT22;2607;50.934;6.934;2022-11-15T00:48:23;11.40;99.90
5176;DHT22;2607;50.934;6.934;2022-11-15T00:50:49;11.40;99.90
5176;DHT22;2607;50.934;6.934;2022-11-15T00:53:15;11.40;99.90
5176;DHT22;2607;50.934;6.934;2022-11-15T00:55:40;11.40;99.90
5176;DHT22;2607;50.934;6.934;2022-11-15T00:58:06;11.40;99.90
5176;DHT22;2607;50.934;6.934;2022-11-15T01:00:31;11.50;99.90
5176;DHT22;2607;50.934;6.934;2022-11-15T01:02:57;11.50;99.90
5176;DHT22;2607;50.934;6.934;2022-11-15T01:05:23;11.50;99.90
5176;DHT22;2607;50.934;6.934;2022-11-15T01:07:52;11.50;99.90
5176;DHT22;2607;50.934;6.934;2022-11-15T01:10:18;11.50;99.90
5176;DHT22;2607;50.934;6.934;2022-11-15T01:12:44;11.50;99.90
5176;DHT22;2607;50.934;6.934;2022-11-15T01:15:09;11.50;99.90
5176;DHT22;2607;50.934;6.934;2022-11-15T01:17:35;11.50;99.90
5176;DHT22;2607;50.934;6.934;2022-11-15T01:20:00;11.50;99.90
5176;DHT22;2607;50.934;6.934;2022-11-15T01:22:26;11.50;99.90
5176;DHT22;2607;50.934;6.934;2022-11-15T01:24:52;11.60;99.90
5176;DHT22;2607;50.934;6.934;2022-11-15T01:27:17;11.50;99.90
5176;DHT22;2607;50.934;6.934;2022-11-15T01:29:43;11.60;99.90
5176;DHT22;2607;50.934;6.934;2022-11-15T01:32:09;11.60;99.90
5176;DHT22;2607;50.934;6.934;2022-11-15T01:34:34;11.60;99.90
5176;DHT22;2607;50.934;6.934;2022-11-15T01:37:00;11.60;99.90
5176;DHT22;2607;50.934;6.934;2022-11-15T01:39:25;11.60;99.90
5176;DHT22;2607;50.934;6.934;2022-11-15T01:41:51;11.70;99.90
5176;DHT22;2607;50.934;6.934;2022-11-15T01:44:51;11.70;99.90
5176;DHT22;2607;50.934;6.934;2022-11-15T01:47:22;11.70;99.90
5176;DHT22;2607;50.934;6.934;2022-11-15T01:50:02;11.70;99.90
5176;DHT22;2607;50.934;6.934;2022-11-15T01:52:30;11.70;99.90
5176;DHT22;2607;50.934;6.934;2022-11-15T01:55:19;11.70;99.90
5176;DHT22;2607;50.934;6.934;2022-11-15T01:57:46;11.80;99.90
5176;DHT22;2607;50.934;6.934;2022-11-15T02:00:13;11.80;99.90
5176;DHT22;2607;50.934;6.934;2022-11-15T02:02:39;11.80;99.90
5176;DHT22;2607;50.934;6.934;2022-11-15T02:05:05;11.80;99.90
5176;DHT22;2607;50.934;6.934;2022-11-15T02:07:33;11.80;99.90
5176;DHT22;2607;50.934;6.934;2022-11-15T02:10:12;11.80;99.90
5176;DHT22;2607;50.934;6.934;2022-11-15T02:12:39;11.80;99.90
5176;DHT22;2607;50.934;6.934;2022-11-15T02:15:06;11.90;99.90
5176;DHT22;2607;50.934;6.934;2022-11-15T02:28:48;11.90;99.90
5176;DHT22;2607;50.934;6.934;2022-11-15T02:31:35;11.90;99.90
5176;DHT22;2607;50.934;6.934;2022-11-15T02:34:40;11.90;99.90
5176;DHT22;2607;50.934;6.934;2022-11-15T02:43:04;11.90;99.90
5176;DHT22;2607;50.934;6.934;2022-11-15T02:48:45;11.90;99.90
5176;DHT22;2607;50.934;6.934;2022-11-15T02:51:12;12.00;99.90
5176;DHT22;2607;50.934;6.934;2022-11-15T02:53:38;12.00;99.90
5176;DHT22;2607;50.934;6.934;2022-11-15T02:56:03;12.00;99.90
5176;DHT22;2607;50.934;6.934;2022-11-15T02:59:05;12.00;99.90
5176;DHT22;2607;50.934;6.934;2022-11-15T03:02:00;12.00;99.90
5176;DHT22;2607;50.934;6.934;2022-11-15T03:07:46;12.00;99.90
5176;DHT22;2607;50.934;6.934;2022-11-15T03:10:26;12.00;99.90
5176;DHT22;2607;50.934;6.934;2022-11-15T03:13:08;12.10;99.90
5176;DHT22;2607;50.934;6.934;2022-11-15T03:15:43;12.10;99.90
5176;DHT22;2607;50.934;6.934;2022-11-15T03:18:23;12.10;99.90
5176;DHT22;2607;50.934;6.934;2022-11-15T03:20:52;12.10;99.90
5176;DHT22;2607;50.934;6.934;2022-11-15T03:23:18;12.10;99.90
5176;DHT22;2607;50.934;6.934;2022-11-15T03:25:47;12.10;99.90
5176;DHT22;2607;50.934;6.934;2022-11-15T03:28:23;12.10;99.90
5176;DHT22;2607;50.934;6.934;2022-11-15T03:30:52;12.10;99.90
5176;DHT22;2607;50.934;6.934;2022-11-15T03:33:21;12.10;99.90
5176;DHT22;2607;50.934;6.934;2022-11-15T03:35:48;12.20;99.90
5176;DHT22;2607;50.934;6.934;2022-11-15T03:38:25;12.20;99.90
5176;DHT22;2607;50.934;6.934;2022-11-15T03:41:04;12.20;99.90
5176;DHT22;2607;50.934;6.934;2022-11-15T03:43:42;12.20;99.90
5176;DHT22;2607;50.934;6.934;2022-11-15T03:46:20;12.20;99.90
5176;DHT22;2607;50.934;6.934;2022-11-15T03:48:55;12.20;99.90
5176;DHT22;2607;50.934;6.934;2022-11-15T03:51:22;12.20;99.90
5176;DHT22;2607;50.934;6.934;2022-11-15T03:53:48;12.20;99.90
5176;DHT22;2607;50.934;6.934;2022-11-15T03:56:13;12.20;99.90
5176;DHT22;2607;50.934;6.934;2022-11-15T03:58:39;12.20;99.90
5176;DHT22;2607;50.934;6.934;2022-11-15T04:01:04;12.20;99.90
5176;DHT22;2607;50.934;6.934;2022-11-15T04:03:30;12.20;99.90
5176;DHT22;2607;50.934;6.934;2022-11-15T04:05:56;12.30;99.90
5176;DHT22;2607;50.934;6.934;2022-11-15T04:08:21;12.30;99.90
5176;DHT22;2607;50.934;6.934;2022-11-15T04:10:49;12.30;99.90
5176;DHT22;2607;50.934;6.934;2022-11-15T04:13:14;12.30;99.90
5176;DHT22;2607;50.934;6.934;2022-11-15T04:15:40;12.30;99.90
5176;DHT22;2607;50.934;6.934;2022-11-15T04:18:05;12.30;99.90
5176;DHT22;2607;50.934;6.934;2022-11-15T04:20:31;12.30;99.90
5176;DHT22;2607;50.934;6.934;2022-11-15T04:23:19;12.30;99.90
5176;DHT22;2607;50.934;6.934;2022-11-15T04:26:15;12.30;99.90
5176;DHT22;2607;50.934;6.934;2022-11-15T04:28:41;12.30;99.90
5176;DHT22;2607;50.934;6.934;2022-11-15T04:31:26;12.30;99.90
5176;DHT22;2607;50.934;6.934;2022-11-15T04:33:52;12.30;99.90
5176;DHT22;2607;50.934;6.934;2022-11-15T04:36:18;12.30;99.90
5176;DHT22;2607;50.934;6.934;2022-11-15T04:39:03;12.30;99.90
5176;DHT22;2607;50.934;6.934;2022-11-15T04:41:28;12.30;99.90
5176;DHT22;2607;50.934;6.934;2022-11-15T04:43:54;12.30;99.90
5176;DHT22;2607;50.934;6.934;2022-11-15T04:46:20;12.30;99.90
5176;DHT22;2607;50.934;6.934;2022-11-15T04:48:46;12.30;99.90
5176;DHT22;2607;50.934;6.934;2022-11-15T04:51:11;12.30;99.90
5176;DHT22;2607;50.934;6.934;2022-11-15T04:53:37;12.30;99.90
5176;DHT22;2607;50.934;6.934;2022-11-15T04:56:03;12.30;99.90
5176;DHT22;2607;50.934;6.934;2022-11-15T04:58:28;12.30;99.90
5176;DHT22;2607;50.934;6.934;2022-11-15T05:00:54;12.30;99.90
5176;DHT22;2607;50.934;6.934;2022-11-15T05:03:19;12.30;99.90
5176;DHT22;2607;50.934;6.934;2022-11-15T05:06:04;12.40;99.90
5176;DHT22;2607;50.934;6.934;2022-11-15T05:08:30;12.30;99.90
5176;DHT22;2607;50.934;6.934;2022-11-15T05:10:56;12.30;99.90
5176;DHT22;2607;50.934;6.934;2022-11-15T05:13:21;12.30;99.90
5176;DHT22;2607;50.934;6.934;2022-11-15T05:15:47;12.30;99.90
5176;DHT22;2607;50.934;6.934;2022-11-15T05:18:13;12.30;99.90
5176;DHT22;2607;50.934;6.934;2022-11-15T05:20:39;12.30;99.90
5176;DHT22;2607;50.934;6.934;2022-11-15T05:23:05;12.30;99.90
5176;DHT22;2607;50.934;6.934;2022-11-15T05:25:30;12.20;99.90
5176;DHT22;2607;50.934;6.934;2022-11-15T05:27:56;12.20;99.90
5176;DHT22;2607;50.934;6.934;2022-11-15T05:30:22;12.20;99.90
5176;DHT22;2607;50.934;6.934;2022-11-15T05:32:47;12.20;99.90
5176;DHT22;2607;50.934;6.934;2022-11-15T05:35:20;12.20;99.90
5176;DHT22;2607;50.934;6.934;2022-11-15T05:37:46;12.20;99.90
5176;DHT22;2607;50.934;6.934;2022-11-15T05:40:13;12.20;99.90
5176;DHT22;2607;50.934;6.934;2022-11-15T05:42:38;12.20;99.90
5176;DHT22;2607;50.934;6.934;2022-11-15T05:45:06;12.20;99.90
5176;DHT22;2607;50.934;6.934;2022-11-15T05:47:35;12.20;99.90
5176;DHT22;2607;50.934;6.934;2022-11-15T05:50:01;12.10;99.90
5176;DHT22;2607;50.934;6.934;2022-11-15T05:52:31;12.10;99.90
5176;DHT22;2607;50.934;6.934;2022-11-15T05:54:59;12.10;99.90
5176;DHT22;2607;50.934;6.934;2022-11-15T05:57:24;12.00;99.90
5176;DHT22;2607;50.934;6.934;2022-11-15T05:59:50;12.00;99.90
5176;DHT22;2607;50.934;6.934;2022-11-15T06:02:16;12.00;99.90
5176;DHT22;2607;50.934;6.934;2022-11-15T06:04:42;12.00;99.90
5176;DHT22;2607;50.934;6.934;2022-11-15T06:07:08;12.00;99.90
5176;DHT22;2607;50.934;6.934;2022-11-15T06:09:33;11.90;99.90
5176;DHT22;2607;50.934;6.934;2022-11-15T06:11:59;11.90;99.90
5176;DHT22;2607;50.934;6.934;2022-11-15T06:14:24;11.90;99.90
5176;DHT22;2607;50.934;6.934;2022-11-15T06:16:50;11.90;99.90
5176;DHT22;2607;50.934;6.934;2022-11-15T06:19:15;11.90;99.90
5176;DHT22;2607;50.934;6.934;2022-11-15T06:21:42;11.80;99.90
5176;DHT22;2607;50.934;6.934;2022-11-15T06:24:07;11.80;99.90
5176;DHT22;2607;50.934;6.934;2022-11-15T06:26:33;11.80;99.90
5176;DHT22;2607;50.934;6.934;2022-11-15T06:28:58;11.80;99.90
5176;DHT22;2607;50.934;6.934;2022-11-15T06:31:24;11.80;99.90
5176;DHT22;2607;50.934;6.934;2022-11-15T06:33:50;11.70;99.90
5176;DHT22;2607;50.934;6.934;2022-11-15T06:36:15;11.70;99.90
5176;DHT22;2607;50.934;6.934;2022-11-15T06:38:42;11.70;99.90
5176;DHT22;2607;50.934;6.934;2022-11-15T06:41:09;11.70;99.90
5176;DHT22;2607;50.934;6.934;2022-11-15T06:43:36;11.60;99.90
5176;DHT22;2607;50.934;6.934;2022-11-15T06:46:03;11.60;99.90
5176;DHT22;2607;50.934;6.934;2022-11-15T06:48:29;11.60;99.90
5176;DHT22;2607;50.934;6.934;2022-11-15T06:50:57;11.60;99.90
5176;DHT22;2607;50.934;6.934;2022-11-15T06:53:24;11.50;99.90
5176;DHT22;2607;50.934;6.934;2022-11-15T06:55:49;11.50;99.90
5176;DHT22;2607;50.934;6.934;2022-11-15T06:58:15;11.50;99.90
5176;DHT22;2607;50.934;6.934;2022-11-15T07:00:41;11.50;99.90
5176;DHT22;2607;50.934;6.934;2022-11-15T07:03:07;11.50;99.90
5176;DHT22;2607;50.934;6.934;2022-11-15T07:05:34;11.40;99.90
5176;DHT22;2607;50.934;6.934;2022-11-15T07:08:00;11.40;99.90
5176;DHT22;2607;50.934;6.934;2022-11-15T07:10:26;11.40;99.90
5176;DHT22;2607;50.934;6.934;2022-11-15T07:12:52;11.40;99.90
5176;DHT22;2607;50.934;6.934;2022-11-15T07:15:19;11.40;99.90
5176;DHT22;2607;50.934;6.934;2022-11-15T07:17:45;11.40;99.90
5176;DHT22;2607;50.934;6.934;2022-11-15T07:20:12;11.40;99.90
5176;DHT22;2607;50.934;6.934;2022-11-15T07:22:39;11.40;99.90
5176;DHT22;2607;50.934;6.934;2022-11-15T07:25:06;11.40;99.90
5176;DHT22;2607;50.934;6.934;2022-11-15T07:27:31;11.40;99.90
5176;DHT22;2607;50.934;6.934;2022-11-15T07:29:57;11.40;99.90
5176;DHT22;2607;50.934;6.934;2022-11-15T07:32:23;11.40;99.90
5176;DHT22;2607;50.934;6.934;2022-11-15T07:34:48;11.40;99.90
5176;DHT22;2607;50.934;6.934;2022-11-15T07:37:14;11.40;99.90
5176;DHT22;2607;50.934;6.934;2022-11-15T07:39:39;11.30;99.90
5176;DHT22;2607;50.934;6.934;2022-11-15T07:42:05;11.30;99.90
5176;DHT22;2607;50.934;6.934;2022-11-15T07:44:49;11.30;99.90
5176;DHT22;2607;50.934;6.934;2022-11-15T07:47:15;11.30;99.90
5176;DHT22;2607;50.934;6.934;2022-11-15T07:49:40;11.30;99.90
5176;DHT22;2607;50.934;6.934;2022-11-15T07:52:06;11.40;99.90
5176;DHT22;2607;50.934;6.934;2022-11-15T07:54:31;11.40;99.90
5176;DHT22;2607;50.934;6.934;2022-11-15T07:56:57;11.40;99.90
5176;DHT22;2607;50.934;6.934;2022-11-15T07:59:22;11.40;99.90
5176;DHT22;2607;50.934;6.934;2022-11-15T08:01:48;11.40;99.90
5176;DHT22;2607;50.934;6.934;2022-11-15T08:04:14;11.40;99.90
5176;DHT22;2607;50.934;6.934;2022-11-15T08:06:39;11.40;99.90
5176;DHT22;2607;50.934;6.934;2022-11-15T08:09:05;11.40;99.90
5176;DHT22;2607;50.934;6.934;2022-11-15T08:11:30;11.50;99.90
5176;DHT22;2607;50.934;6.934;2022-11-15T08:13:56;11.50;99.90
5176;DHT22;2607;50.934;6.934;2022-11-15T08:16:22;11.50;99.90
5176;DHT22;2607;50.934;6.934;2022-11-15T08:18:47;11.50;99.90
5176;DHT22;2607;50.934;6.934;2022-11-15T08:21:18;11.50;99.90
5176;DHT22;2607;50.934;6.934;2022-11-15T08:23:44;11.50;99.90
5176;DHT22;2607;50.934;6.934;2022-11-15T08:26:10;11.50;99.90
5176;DHT22;2607;50.934;6.934;2022-11-15T08:28:35;11.50;99.90
5176;DHT22;2607;50.934;6.934;2022-11-15T08:31:02;11.50;99.90
5176;DHT22;2607;50.934;6.934;2022-11-15T08:33:28;11.60;99.90
5176;DHT22;2607;50.934;6.934;2022-11-15T08:35:58;11.60;99.90
5176;DHT22;2607;50.934;6.934;2022-11-15T08:38:24;11.60;99.90
5176;DHT22;2607;50.934;6.934;2022-11-15T08:40:51;11.60;99.90
5176;DHT22;2607;50.934;6.934;2022-11-15T08:43:19;11.60;99.90
5176;DHT22;2607;50.934;6.934;2022-11-15T08:45:44;11.70;99.90
5176;DHT22;2607;50.934;6.934;2022-11-15T08:48:10;11.70;99.90
5176;DHT22;2607;50.934;6.934;2022-11-15T08:50:36;11.70;99.90
5176;DHT22;2607;50.934;6.934;2022-11-15T08:53:06;11.70;99.90
5176;DHT22;2607;50.934;6.934;2022-11-15T08:55:32;11.70;99.90
5176;DHT22;2607;50.934;6.934;2022-11-15T08:57:58;11.80;99.90
5176;DHT22;2607;50.934;6.934;2022-11-15T09:00:23;11.80;99.90
5176;DHT22;2607;50.934;6.934;2022-11-15T09:02:49;11.80;99.90
5176;DHT22;2607;50.934;6.934;2022-11-15T09:05:14;11.80;99.90
5176;DHT22;2607;50.934;6.934;2022-11-15T09:07:41;11.80;99.90
5176;DHT22;2607;50.934;6.934;2022-11-15T09:10:06;11.80;99.90
5176;DHT22;2607;50.934;6.934;2022-11-15T09:12:32;11.90;99.90
5176;DHT22;2607;50.934;6.934;2022-11-15T09:14:58;11.90;99.90
5176;DHT22;2607;50.934;6.934;2022-11-15T09:17:23;11.90;99.90
5176;DHT22;2607;50.934;6.934;2022-11-15T09:19:49;11.90;99.90
5176;DHT22;2607;50.934;6.934;2022-11-15T09:22:14;11.90;99.90
5176;DHT22;2607;50.934;6.934;2022-11-15T09:24:40;11.90;99.90
5176;DHT22;2607;50.934;6.934;2022-11-15T09:27:06;12.00;99.90
5176;DHT22;2607;50.934;6.934;2022-11-15T09:29:31;12.00;99.90
5176;DHT22;2607;50.934;6.934;2022-11-15T09:31:57;12.00;99.90
5176;DHT22;2607;50.934;6.934;2022-11-15T09:34:22;12.00;99.90
5176;DHT22;2607;50.934;6.934;2022-11-15T09:36:48;12.00;99.90
5176;DHT22;2607;50.934;6.934;2022-11-15T09:39:13;12.10;99.90
5176;DHT22;2607;50.934;6.934;2022-11-15T09:41:56;12.10;99.90
5176;DHT22;2607;50.934;6.934;2022-11-15T09:49:32;12.20;99.90
5176;DHT22;2607;50.934;6.934;2022-11-15T09:51:58;12.20;99.90
5176;DHT22;2607;50.934;6.934;2022-11-15T09:54:34;12.20;99.90
5176;DHT22;2607;50.934;6.934;2022-11-15T09:57:33;12.20;99.90
5176;DHT22;2607;50.934;6.934;2022-11-15T10:00:22;12.20;99.90
5176;DHT22;2607;50.934;6.934;2022-11-15T10:05:41;12.30;99.90
5176;DHT22;2607;50.934;6.934;2022-11-15T10:08:31;12.30;99.90
5176;DHT22;2607;50.934;6.934;2022-11-15T10:11:27;12.40;99.90
5176;DHT22;2607;50.934;6.934;2022-11-15T10:13:58;12.40;99.90
5176;DHT22;2607;50.934;6.934;2022-11-15T10:24:35;12.50;99.90
5176;DHT22;2607;50.934;6.934;2022-11-15T10:27:11;12.50;99.90
5176;DHT22;2607;50.934;6.934;2022-11-15T10:29:43;12.50;99.90
5176;DHT22;2607;50.934;6.934;2022-11-15T10:32:11;12.60;99.90
5176;DHT22;2607;50.934;6.934;2022-11-15T10:34:37;12.60;99.90
5176;DHT22;2607;50.934;6.934;2022-11-15T10:37:03;12.60;99.90
5176;DHT22;2607;50.934;6.934;2022-11-15T10:39:29;12.70;99.90
5176;DHT22;2607;50.934;6.934;2022-11-15T10:41:55;12.70;99.90
5176;DHT22;2607;50.934;6.934;2022-11-15T10:44:23;12.70;99.90
5176;DHT22;2607;50.934;6.934;2022-11-15T10:54:47;12.70;99.90
5176;DHT22;2607;50.934;6.934;2022-11-15T10:57:14;12.80;99.90
5176;DHT22;2607;50.934;6.934;2022-11-15T10:59:45;12.70;99.90
5176;DHT22;2607;50.934;6.934;2022-11-15T11:02:33;12.80;99.90
5176;DHT22;2607;50.934;6.934;2022-11-15T11:05:00;12.80;99.90
5176;DHT22;2607;50.934;6.934;2022-11-15T11:07:29;12.80;99.90
5176;DHT22;2607;50.934;6.934;2022-11-15T11:12:31;12.80;99.90
5176;DHT22;2607;50.934;6.934;2022-11-15T11:14:58;12.90;99.90
5176;DHT22;2607;50.934;6.934;2022-11-15T11:28:47;13.00;99.90
5176;DHT22;2607;50.934;6.934;2022-11-15T11:37:03;13.00;99.60
5176;DHT22;2607;50.934;6.934;2022-11-15T11:42:14;13.10;99.70
5176;DHT22;2607;50.934;6.934;2022-11-15T11:44:58;13.20;99.70
5176;DHT22;2607;50.934;6.934;2022-11-15T11:47:32;13.20;99.60
5176;DHT22;2607;50.934;6.934;2022-11-15T11:50:19;13.20;99.50
5176;DHT22;2607;50.934;6.934;2022-11-15T11:53:04;13.30;99.20
5176;DHT22;2607;50.934;6.934;2022-11-15T11:55:46;13.30;99.20
5176;DHT22;2607;50.934;6.934;2022-11-15T11:58:27;13.30;99.40
5176;DHT22;2607;50.934;6.934;2022-11-15T12:00:57;13.40;99.40
5176;DHT22;2607;50.934;6.934;2022-11-15T12:06:37;13.60;99.30
5176;DHT22;2607;50.934;6.934;2022-11-15T12:09:12;13.60;99.20
5176;DHT22;2607;50.934;6.934;2022-11-15T12:14:18;13.70;99.10
5176;DHT22;2607;50.934;6.934;2022-11-15T12:16:47;13.70;99.10
5176;DHT22;2607;50.934;6.934;2022-11-15T12:19:12;13.70;99.10
5176;DHT22;2607;50.934;6.934;2022-11-15T12:21:54;13.80;99.20
5176;DHT22;2607;50.934;6.934;2022-11-15T12:27:17;13.80;99.00
5176;DHT22;2607;50.934;6.934;2022-11-15T12:29:53;13.90;99.10
5176;DHT22;2607;50.934;6.934;2022-11-15T12:32:27;13.90;99.20
5176;DHT22;2607;50.934;6.934;2022-11-15T12:34:54;14.00;99.30
5176;DHT22;2607;50.934;6.934;2022-11-15T12:37:34;14.00;99.30
5176;DHT22;2607;50.934;6.934;2022-11-15T12:45:36;14.20;99.20
5176;DHT22;2607;50.934;6.934;2022-11-15T12:51:00;14.30;99.20
5176;DHT22;2607;50.934;6.934;2022-11-15T12:53:31;14.30;99.10
5176;DHT22;2607;50.934;6.934;2022-11-15T12:58:57;14.40;99.20
5176;DHT22;2607;50.934;6.934;2022-11-15T13:06:48;14.50;99.20
5176;DHT22;2607;50.934;6.934;2022-11-15T13:12:04;14.50;99.20
5176;DHT22;2607;50.934;6.934;2022-11-15T13:17:33;14.50;99.20
5176;DHT22;2607;50.934;6.934;2022-11-15T13:28:02;14.60;99.40
5176;DHT22;2607;50.934;6.934;2022-11-15T13:30:30;14.60;99.60
5176;DHT22;2607;50.934;6.934;2022-11-15T13:32:58;14.60;99.90
5176;DHT22;2607;50.934;6.934;2022-11-15T13:35:28;14.60;99.90
5176;DHT22;2607;50.934;6.934;2022-11-15T13:37:55;14.60;99.90
5176;DHT22;2607;50.934;6.934;2022-11-15T13:42:47;14.70;99.90
5176;DHT22;2607;50.934;6.934;2022-11-15T13:45:18;14.70;99.90
5176;DHT22;2607;50.934;6.934;2022-11-15T13:47:43;14.70;99.90
5176;DHT22;2607;50.934;6.934;2022-11-15T13:50:13;14.60;99.90
5176;DHT22;2607;50.934;6.934;2022-11-15T13:52:41;14.60;99.90
5176;DHT22;2607;50.934;6.934;2022-11-15T13:55:34;14.60;99.90
5176;DHT22;2607;50.934;6.934;2022-11-15T13:58:02;14.60;99.90
5176;DHT22;2607;50.934;6.934;2022-11-15T14:00:41;14.60;99.90
5176;DHT22;2607;50.934;6.934;2022-11-15T14:03:30;14.60;99.90
5176;DHT22;2607;50.934;6.934;2022-11-15T14:06:09;14.60;99.90
5176;DHT22;2607;50.934;6.934;2022-11-15T14:08:37;14.60;99.90
5176;DHT22;2607;50.934;6.934;2022-11-15T14:11:30;14.60;99.90
5176;DHT22;2607;50.934;6.934;2022-11-15T14:14:12;14.60;99.90
5176;DHT22;2607;50.934;6.934;2022-11-15T14:16:45;14.60;99.90
5176;DHT22;2607;50.934;6.934;2022-11-15T14:19:32;14.60;99.90
5176;DHT22;2607;50.934;6.934;2022-11-15T14:22:27;14.60;99.90
5176;DHT22;2607;50.934;6.934;2022-11-15T14:25:22;14.60;99.90
5176;DHT22;2607;50.934;6.934;2022-11-15T14:30:35;14.50;99.90
5176;DHT22;2607;50.934;6.934;2022-11-15T14:33:02;14.50;99.90
5176;DHT22;2607;50.934;6.934;2022-11-15T14:35:39;14.50;99.90
5176;DHT22;2607;50.934;6.934;2022-11-15T14:38:05;14.50;99.90
5176;DHT22;2607;50.934;6.934;2022-11-15T14:40:30;14.50;99.90
5176;DHT22;2607;50.934;6.934;2022-11-15T14:42:56;14.40;99.90
5176;DHT22;2607;50.934;6.934;2022-11-15T14:45:22;14.40;99.90
5176;DHT22;2607;50.934;6.934;2022-11-15T14:47:48;14.40;99.90
5176;DHT22;2607;50.934;6.934;2022-11-15T14:50:16;14.40;99.90
5176;DHT22;2607;50.934;6.934;2022-11-15T14:52:42;14.40;99.90
5176;DHT22;2607;50.934;6.934;2022-11-15T14:55:26;14.40;99.90
5176;DHT22;2607;50.934;6.934;2022-11-15T14:57:54;14.40;99.90
5176;DHT22;2607;50.934;6.934;2022-11-15T15:00:20;14.40;99.90
5176;DHT22;2607;50.934;6.934;2022-11-15T15:02:47;14.40;99.90
5176;DHT22;2607;50.934;6.934;2022-11-15T15:05:24;14.40;99.90
5176;DHT22;2607;50.934;6.934;2022-11-15T15:07:51;14.40;99.90
5176;DHT22;2607;50.934;6.934;2022-11-15T15:10:18;14.30;99.90
5176;DHT22;2607;50.934;6.934;2022-11-15T15:12:44;14.30;99.90
5176;DHT22;2607;50.934;6.934;2022-11-15T15:15:19;14.30;99.90
5176;DHT22;2607;50.934;6.934;2022-11-15T15:17:45;14.30;99.90
5176;DHT22;2607;50.934;6.934;2022-11-15T15:20:11;14.30;99.90
5176;DHT22;2607;50.934;6.934;2022-11-15T15:22:37;14.30;99.90
5176;DHT22;2607;50.934;6.934;2022-11-15T15:25:07;14.30;99.90
5176;DHT22;2607;50.934;6.934;2022-11-15T15:27:34;14.30;99.90
5176;DHT22;2607;50.934;6.934;2022-11-15T15:29:59;14.20;99.90
5176;DHT22;2607;50.934;6.934;2022-11-15T15:32:25;14.20;99.90
5176;DHT22;2607;50.934;6.934;2022-11-15T15:34:50;14.30;99.90
5176;DHT22;2607;50.934;6.934;2022-11-15T15:37:22;14.20;99.90
5176;DHT22;2607;50.934;6.934;2022-11-15T15:39:54;14.20;99.90
5176;DHT22;2607;50.934;6.934;2022-11-15T15:42:21;14.20;99.90
5176;DHT22;2607;50.934;6.934;2022-11-15T15:44:48;14.10;99.90
5176;DHT22;2607;50.934;6.934;2022-11-15T15:47:18;14.10;99.90
5176;DHT22;2607;50.934;6.934;2022-11-15T15:49:44;14.10;99.90
5176;DHT22;2607;50.934;6.934;2022-11-15T15:52:09;14.10;99.90
5176;DHT22;2607;50.934;6.934;2022-11-15T15:54:35;14.10;99.90
5176;DHT22;2607;50.934;6.934;2022-11-15T15:57:01;14.10;99.90
5176;DHT22;2607;50.934;6.934;2022-11-15T15:59:26;14.00;99.90
5176;DHT22;2607;50.934;6.934;2022-11-15T16:01:52;14.00;99.90
5176;DHT22;2607;50.934;6.934;2022-11-15T16:04:17;14.00;99.90
5176;DHT22;2607;50.934;6.934;2022-11-15T16:06:44;14.00;99.90
5176;DHT22;2607;50.934;6.934;2022-11-15T16:09:16;14.00;99.90
5176;DHT22;2607;50.934;6.934;2022-11-15T16:11:44;14.00;99.90
5176;DHT22;2607;50.934;6.934;2022-11-15T16:14:10;14.00;99.90
5176;DHT22;2607;50.934;6.934;2022-11-15T16:16:36;14.00;99.90
5176;DHT22;2607;50.934;6.934;2022-11-15T16:19:03;14.00;99.90
5176;DHT22;2607;50.934;6.934;2022-11-15T16:21:28;14.00;99.90
5176;DHT22;2607;50.934;6.934;2022-11-15T16:23:54;14.00;99.90
5176;DHT22;2607;50.934;6.934;2022-11-15T16:26:27;14.00;99.90
5176;DHT22;2607;50.934;6.934;2022-11-15T16:28:54;14.00;99.90
5176;DHT22;2607;50.934;6.934;2022-11-15T16:31:20;14.00;99.90
5176;DHT22;2607;50.934;6.934;2022-11-15T16:33:49;14.00;99.90
5176;DHT22;2607;50.934;6.934;2022-11-15T16:36:23;14.00;99.90
5176;DHT22;2607;50.934;6.934;2022-11-15T16:38:49;14.00;99.90
5176;DHT22;2607;50.934;6.934;2022-11-15T16:41:15;14.00;99.90
5176;DHT22;2607;50.934;6.934;2022-11-15T16:43:44;14.00;99.90
5176;DHT22;2607;50.934;6.934;2022-11-15T16:46:18;14.00;99.90
5176;DHT22;2607;50.934;6.934;2022-11-15T16:48:44;14.00;99.90
5176;DHT22;2607;50.934;6.934;2022-11-15T16:51:10;14.00;99.90
5176;DHT22;2607;50.934;6.934;2022-11-15T16:53:37;14.00;99.90
5176;DHT22;2607;50.934;6.934;2022-11-15T16:56:03;14.00;99.90
5176;DHT22;2607;50.934;6.934;2022-11-15T16:58:28;14.00;99.90
5176;DHT22;2607;50.934;6.934;2022-11-15T17:00:55;14.00;99.90
5176;DHT22;2607;50.934;6.934;2022-11-15T17:03:22;13.90;99.90
5176;DHT22;2607;50.934;6.934;2022-11-15T17:05:49;13.90;99.90
5176;DHT22;2607;50.934;6.934;2022-11-15T17:08:15;13.90;99.90
5176;DHT22;2607;50.934;6.934;2022-11-15T17:10:40;13.90;99.90
5176;DHT22;2607;50.934;6.934;2022-11-15T17:13:09;13.90;99.90
5176;DHT22;2607;50.934;6.934;2022-11-15T17:15:36;13.90;99.90
5176;DHT22;2607;50.934;6.934;2022-11-15T17:18:02;13.90;99.90
5176;DHT22;2607;50.934;6.934;2022-11-15T17:20:27;13.90;99.90
5176;DHT22;2607;50.934;6.934;2022-11-15T17:22:53;13.90;99.90
5176;DHT22;2607;50.934;6.934;2022-11-15T17:25:19;13.90;99.90
5176;DHT22;2607;50.934;6.934;2022-11-15T17:27:45;13.90;99.90
5176;DHT22;2607;50.934;6.934;2022-11-15T17:30:12;13.90;99.90
5176;DHT22;2607;50.934;6.934;2022-11-15T17:32:39;13.90;99.90
5176;DHT22;2607;50.934;6.934;2022-11-15T17:35:05;13.90;99.90
5176;DHT22;2607;50.934;6.934;2022-11-15T17:37:34;13.90;99.90
5176;DHT22;2607;50.934;6.934;2022-11-15T17:39:59;13.90;99.90
5176;DHT22;2607;50.934;6.934;2022-11-15T17:42:25;13.90;99.90
5176;DHT22;2607;50.934;6.934;2022-11-15T17:44:50;13.80;99.90
5176;DHT22;2607;50.934;6.934;2022-11-15T17:47:16;13.80;99.90
5176;DHT22;2607;50.934;6.934;2022-11-15T17:49:41;13.80;99.90
5176;DHT22;2607;50.934;6.934;2022-11-15T17:52:07;13.80;99.90
5176;DHT22;2607;50.934;6.934;2022-11-15T17:54:33;13.80;99.90
5176;DHT22;2607;50.934;6.934;2022-11-15T17:56:58;13.70;99.90
5176;DHT22;2607;50.934;6.934;2022-11-15T17:59:24;13.70;99.90
5176;DHT22;2607;50.934;6.934;2022-11-15T18:01:50;13.70;99.90
5176;DHT22;2607;50.934;6.934;2022-11-15T18:04:15;13.70;99.90
5176;DHT22;2607;50.934;6.934;2022-11-15T18:06:41;13.60;99.90
5176;DHT22;2607;50.934;6.934;2022-11-15T18:09:07;13.60;99.90